Time;durP1;ratioP1;P1;durP2;ratioP2;P2;SDS_P1;SDS_P2;PMS_P1;PMS_P2;Temp;Humidity;BMP_temperature;BMP_pressure;BME280_temperature;BME280_humidity;BME280_pressure;Samples;Min_cycle;Max_cycle;Signal;HPM_P1;HPM_P2
2023/03/24 00:01:44;;;;;;;2.30;2.20;;;17.70;40.90;;;;;;20919;6722;116870;-72
2023/03/24 00:04:16;;;;;;;2.40;2.30;;;17.60;41.00;;;;;;20735;6718;281087;-73
2023/03/24 00:06:53;;;;;;;2.40;2.20;;;17.60;43.30;;;;;;20942;6718;117906;-78
2023/03/24 00:09:29;;;;;;;3.47;2.57;;;17.40;43.10;;;;;;20938;6723;117432;-75
2023/03/24 00:12:05;;;;;;;2.10;2.00;;;17.00;43.40;;;;;;20836;6723;117785;-75
2023/03/24 00:14:42;;;;;;;2.90;2.43;;;16.50;44.10;;;;;;20959;6708;118031;-74
2023/03/24 00:17:18;;;;;;;3.13;2.83;;;16.50;44.20;;;;;;20756;6708;299476;-73
2023/03/24 00:19:54;;;;;;;2.80;2.60;;;16.60;45.00;;;;;;20980;6708;116900;-72
2023/03/24 00:22:29;;;;;;;3.13;2.60;;;16.60;44.60;;;;;;20594;6708;312753;-73
2023/03/24 00:25:05;;;;;;;2.90;2.70;;;17.00;44.00;;;;;;20689;6732;318906;-73
2023/03/24 00:27:43;;;;;;;2.77;2.67;;;17.00;43.90;;;;;;20983;6708;117294;-73
2023/03/24 00:30:16;;;;;;;3.83;2.90;;;16.80;43.80;;;;;;20919;6723;117362;-73
2023/03/24 00:32:52;;;;;;;2.90;2.70;;;16.50;44.20;;;;;;20786;6723;117192;-73
2023/03/24 00:35:27;;;;;;;2.87;2.77;;;16.20;44.50;;;;;;20968;6715;117264;-73
2023/03/24 00:38:04;;;;;;;2.57;2.37;;;15.80;45.10;;;;;;20977;6708;116848;-73
2023/03/24 00:40:43;;;;;;;3.20;3.00;;;15.80;45.00;;;;;;20726;6723;277099;-73
2023/03/24 00:43:17;;;;;;;3.33;3.00;;;16.00;45.90;;;;;;20748;6722;123071;-72
2023/03/24 00:46:00;;;;;;;3.05;2.87;;;15.90;45.90;;;;;;20748;6715;276219;-73
2023/03/24 00:48:37;;;;;;;3.17;2.97;;;16.10;45.80;;;;;;20624;6749;278538;-74
2023/03/24 00:51:10;;;;;;;4.50;2.80;;;16.40;45.30;;;;;;20899;6733;119957;-73
2023/03/24 00:53:46;;;;;;;3.03;2.85;;;16.20;45.00;;;;;;20711;6726;276454;-73
2023/03/24 00:56:21;;;;;;;3.10;2.90;;;16.30;45.50;;;;;;20696;6726;286880;-74
2023/03/24 00:58:57;;;;;;;3.17;2.97;;;16.50;45.30;;;;;;20852;6748;117466;-73
2023/03/24 01:01:36;;;;;;;3.23;3.03;;;16.20;45.00;;;;;;20929;6717;116994;-73
2023/03/24 01:04:09;;;;;;;3.22;2.92;;;15.90;45.20;;;;;;20702;6723;276409;-73
2023/03/24 01:06:45;;;;;;;3.17;2.97;;;16.30;45.20;;;;;;20666;6718;305722;-73
2023/03/24 01:09:20;;;;;;;3.00;2.80;;;16.20;45.10;;;;;;20738;6718;276435;-74
2023/03/24 01:11:56;;;;;;;2.50;2.40;;;16.50;45.00;;;;;;20880;6718;117148;-73
2023/03/24 01:14:31;;;;;;;2.80;2.60;;;16.20;44.80;;;;;;20936;6718;122440;-73
2023/03/24 01:17:07;;;;;;;2.67;2.53;;;15.80;45.10;;;;;;20953;6718;116966;-74
2023/03/24 01:19:42;;;;;;;3.00;2.80;;;15.50;45.50;;;;;;20743;6718;305224;-76
2023/03/24 01:22:19;;;;;;;3.00;2.80;;;15.60;46.20;;;;;;20627;6718;279026;-73
2023/03/24 01:24:53;;;;;;;2.63;2.53;;;15.90;45.30;;;;;;20956;6718;116783;-73
2023/03/24 01:27:29;;;;;;;2.90;2.70;;;15.80;45.00;;;;;;20719;6718;277239;-73
2023/03/24 01:30:06;;;;;;;3.07;2.73;;;15.90;45.20;;;;;;20722;6718;276975;-75
2023/03/24 01:32:43;;;;;;;3.33;2.73;;;16.40;43.80;;;;;;20611;6718;308081;-73
2023/03/24 01:35:18;;;;;;;2.40;2.20;;;16.30;44.10;;;;;;20957;6718;117264;-74
2023/03/24 01:37:53;;;;;;;2.33;2.23;;;16.10;44.10;;;;;;20949;6718;116934;-73
2023/03/24 01:40:30;;;;;;;2.50;2.40;;;15.80;44.50;;;;;;20930;6718;117268;-73
2023/03/24 01:43:06;;;;;;;3.30;2.10;;;15.50;44.80;;;;;;20797;6718;117220;-73
2023/03/24 01:45:41;;;;;;;2.27;2.17;;;15.20;45.10;;;;;;20946;6718;117478;-73
2023/03/24 01:48:17;;;;;;;2.65;2.45;;;15.10;45.40;;;;;;20714;6718;276736;-73
2023/03/24 01:51:03;;;;;;;2.40;2.30;;;15.30;45.20;;;;;;20950;6718;117118;-72
2023/03/24 01:53:38;;;;;;;2.70;2.60;;;15.40;45.50;;;;;;20742;6718;297303;-76
2023/03/24 01:56:14;;;;;;;2.57;2.40;;;15.60;45.40;;;;;;20927;6718;117187;-73
2023/03/24 01:58:50;;;;;;;2.60;2.50;;;15.60;45.10;;;;;;20716;6718;306008;-73
2023/03/24 02:01:28;;;;;;;2.57;2.37;;;15.80;44.70;;;;;;20923;6718;117275;-73
2023/03/24 02:04:02;;;;;;;2.53;2.43;;;15.70;44.40;;;;;;20952;6718;117419;-73
2023/03/24 02:06:40;;;;;;;2.50;2.30;;;15.50;44.60;;;;;;20962;6718;117672;-73
2023/03/24 02:09:12;;;;;;;3.17;2.30;;;15.30;44.90;;;;;;20954;6718;117596;-73
2023/03/24 02:11:50;;;;;;;2.33;2.23;;;15.20;45.10;;;;;;20893;6718;117363;-73
2023/03/24 02:14:23;;;;;;;2.60;2.40;;;15.00;45.30;;;;;;20920;6718;124205;-72
2023/03/24 02:17:12;;;;;;;2.50;2.40;;;14.90;45.60;;;;;;20711;6718;300171;-72
2023/03/24 02:19:48;;;;;;;2.67;2.47;;;15.30;46.30;;;;;;20939;6718;116931;-73
2023/03/24 02:22:33;;;;;;;2.70;2.50;;;15.30;46.10;;;;;;20565;6718;308572;-73
2023/03/24 02:25:15;;;;;;;2.70;2.60;;;15.60;45.90;;;;;;19612;7083;343170;-73
2023/03/24 02:28:00;;;;;;;3.50;2.40;;;16.00;45.10;;;;;;20396;6774;118678;-73
2023/03/24 02:30:39;;;;;;;2.20;2.10;;;16.00;45.00;;;;;;20717;6718;306098;-72
2023/03/24 02:33:17;;;;;;;2.35;2.20;;;16.10;44.30;;;;;;20570;6718;287841;-74
2023/03/24 02:36:14;;;;;;;2.10;1.90;;;16.50;43.40;;;;;;20939;6718;117525;-74
2023/03/24 02:39:11;;;;;;;3.67;1.90;;;16.40;43.40;;;;;;20947;6718;117094;-74
2023/03/24 02:41:57;;;;;;;3.10;1.80;;;16.10;43.70;;;;;;20890;6718;117356;-74
2023/03/24 02:44:50;;;;;;;2.00;1.90;;;16.10;43.90;;;;;;20710;6718;306525;-74
2023/03/24 02:47:28;;;;;;;2.40;1.77;;;16.10;43.90;;;;;;20954;6718;117053;-73
2023/03/24 02:50:12;;;;;;;2.23;1.87;;;16.00;44.10;;;;;;20942;6718;116825;-75
2023/03/24 02:52:58;;;;;;;1.90;1.80;;;15.90;44.00;;;;;;20711;6774;117403;-73
2023/03/24 02:55:33;;;;;;;1.90;1.80;;;15.70;44.60;;;;;;20947;6718;117897;-73
2023/03/24 02:58:22;;;;;;;2.10;2.00;;;15.70;44.50;;;;;;20953;6718;121171;-73
2023/03/24 03:00:58;;;;;;;2.07;1.97;;;15.60;44.50;;;;;;20935;6718;122967;-73
2023/03/24 03:03:33;;;;;;;2.35;2.10;;;15.50;44.70;;;;;;20508;6789;309866;-73
2023/03/24 03:06:12;;;;;;;2.27;2.17;;;15.80;44.70;;;;;;20927;6718;122835;-73
2023/03/24 03:08:47;;;;;;;2.40;2.30;;;15.80;44.40;;;;;;20670;6774;306545;-73
2023/03/24 03:11:23;;;;;;;2.40;2.20;;;16.10;44.30;;;;;;20921;6718;116941;-74
2023/03/24 03:14:01;;;;;;;2.33;2.22;;;16.10;44.10;;;;;;20729;6718;306919;-73
2023/03/24 03:16:47;;;;;;;2.50;2.40;;;16.20;43.90;;;;;;20731;6718;306847;-73
2023/03/24 03:19:22;;;;;;;2.42;2.33;;;16.50;43.50;;;;;;20735;6718;306450;-73
2023/03/24 03:21:58;;;;;;;2.30;2.20;;;16.80;42.90;;;;;;20658;6718;280578;-73
2023/03/24 03:24:38;;;;;;;1.87;1.77;;;17.00;42.50;;;;;;20937;6718;117153;-73
2023/03/24 03:27:17;;;;;;;1.93;1.83;;;16.80;42.70;;;;;;20952;6718;117991;-73
2023/03/24 03:29:53;;;;;;;2.40;2.30;;;16.50;43.10;;;;;;20729;6718;319791;-73
2023/03/24 03:32:27;;;;;;;2.50;2.30;;;16.50;43.40;;;;;;20514;6774;308499;-73
2023/03/24 03:35:06;;;;;;;2.60;2.50;;;16.80;42.80;;;;;;20738;6718;322028;-73
2023/03/24 03:37:44;;;;;;;2.33;2.10;;;17.00;43.30;;;;;;20736;6718;291167;-73
2023/03/24 03:40:20;;;;;;;1.90;1.80;;;17.20;42.80;;;;;;20916;6718;118100;-73
2023/03/24 03:42:56;;;;;;;2.13;2.03;;;16.90;42.90;;;;;;20807;6718;117263;-73
2023/03/24 03:45:32;;;;;;;2.17;2.00;;;16.50;43.30;;;;;;20945;6718;117390;-74
2023/03/24 03:48:08;;;;;;;2.80;2.10;;;16.20;43.50;;;;;;20929;6718;121391;-74
2023/03/24 03:50:44;;;;;;;2.15;2.05;;;16.00;43.70;;;;;;20729;6718;306465;-73
2023/03/24 03:53:20;;;;;;;2.03;1.93;;;16.20;43.90;;;;;;20782;6718;117278;-73
2023/03/24 03:55:55;;;;;;;2.00;1.90;;;16.20;43.70;;;;;;20964;6718;117055;-73
2023/03/24 03:58:31;;;;;;;2.42;2.22;;;16.00;43.90;;;;;;20729;6718;281857;-74
2023/03/24 04:01:06;;;;;;;2.20;2.10;;;16.20;43.80;;;;;;20733;6718;306524;-73
2023/03/24 04:03:43;;;;;;;1.80;1.70;;;16.50;43.30;;;;;;20945;6718;119013;-73
2023/03/24 04:06:34;;;;;;;1.90;1.80;;;16.50;43.20;;;;;;20928;6718;128627;-73
2023/03/24 04:09:29;;;;;;;2.17;2.07;;;16.20;43.30;;;;;;19966;6774;306969;-73
2023/03/24 04:12:09;;;;;;;1.87;1.77;;;16.30;42.90;;;;;;20870;6718;117332;-75
2023/03/24 04:15:14;;;;;;;1.80;1.70;;;16.30;42.90;;;;;;20950;6716;118364;-73
2023/03/24 04:17:49;;;;;;;2.10;2.00;;;16.10;43.10;;;;;;20702;6731;344121;-74
2023/03/24 04:20:25;;;;;;;1.87;1.77;;;16.40;42.90;;;;;;20885;6731;117957;-76
2023/03/24 04:23:04;;;;;;;1.90;1.80;;;16.30;42.60;;;;;;20805;6716;117368;-73
2023/03/24 04:25:57;;;;;;;2.15;1.95;;;16.20;42.90;;;;;;20741;6718;334996;-73
2023/03/24 04:28:42;;;;;;;1.90;1.80;;;16.40;42.50;;;;;;20700;6718;322176;-72
2023/03/24 04:31:17;;;;;;;1.83;1.73;;;16.80;41.80;;;;;;20932;6718;117066;-73
2023/03/24 04:33:53;;;;;;;1.80;1.70;;;16.80;41.90;;;;;;20731;6718;306394;-74
2023/03/24 04:36:41;;;;;;;1.87;1.77;;;16.90;41.40;;;;;;20721;6718;276231;-74
2023/03/24 04:39:10;;;;;;;2.35;1.70;;;17.20;41.10;;;;;;20731;6718;277403;-74
2023/03/24 04:41:46;;;;;;;2.30;1.90;;;17.40;40.70;;;;;;20902;6718;117166;-74
2023/03/24 04:44:22;;;;;;;2.00;1.90;;;17.30;40.90;;;;;;20712;6718;281439;-74
2023/03/24 04:46:57;;;;;;;2.00;1.90;;;17.30;40.90;;;;;;20732;6718;306070;-73
2023/03/24 04:49:36;;;;;;;2.10;2.00;;;17.50;40.60;;;;;;20739;6718;276632;-74
2023/03/24 04:52:12;;;;;;;1.90;1.80;;;17.60;40.50;;;;;;20842;6718;117778;-75
2023/03/24 04:54:47;;;;;;;2.60;1.98;;;17.40;40.70;;;;;;20735;6718;310416;-75
2023/03/24 04:57:23;;;;;;;1.87;1.77;;;17.40;41.00;;;;;;20940;6718;118221;-73
2023/03/24 04:59:58;;;;;;;1.73;1.63;;;17.30;41.10;;;;;;20890;6718;117378;-75
2023/03/24 05:02:34;;;;;;;1.57;1.50;;;17.00;41.50;;;;;;20760;6718;117284;-76
2023/03/24 05:05:10;;;;;;;2.03;1.92;;;16.70;41.80;;;;;;20728;6718;286031;-77
2023/03/24 05:07:45;;;;;;;1.77;1.73;;;16.80;41.70;;;;;;20936;6718;118202;-75
2023/03/24 05:10:21;;;;;;;2.25;2.05;;;16.80;41.60;;;;;;20715;6718;276820;-75
2023/03/24 05:12:56;;;;;;;1.90;1.80;;;16.90;41.70;;;;;;20808;6718;117740;-75
2023/03/24 05:15:32;;;;;;;2.40;2.20;;;16.90;41.70;;;;;;20736;6718;306095;-74
2023/03/24 05:18:08;;;;;;;2.10;2.00;;;17.10;41.70;;;;;;20710;6718;305668;-75
2023/03/24 05:20:46;;;;;;;2.20;2.10;;;17.30;41.40;;;;;;20722;6718;306582;-76
2023/03/24 05:23:23;;;;;;;2.10;2.00;;;17.40;41.20;;;;;;20778;6718;117179;-75
2023/03/24 05:26:04;;;;;;;2.17;2.07;;;17.30;41.10;;;;;;20953;6718;117045;-72
2023/03/24 05:28:34;;;;;;;2.20;2.00;;;17.00;41.80;;;;;;20724;6718;305647;-74
2023/03/24 05:31:09;;;;;;;2.20;2.10;;;17.00;43.20;;;;;;20725;6718;305706;-74
2023/03/24 05:33:45;;;;;;;3.72;2.10;;;17.30;43.80;;;;;;20682;6733;307504;-73
2023/03/24 05:36:21;;;;;;;2.50;2.00;;;17.50;43.80;;;;;;20901;6723;117856;-74
2023/03/24 05:38:56;;;;;;;2.00;1.90;;;17.30;43.80;;;;;;20936;6723;117248;-73
2023/03/24 05:41:32;;;;;;;2.10;1.90;;;16.90;44.30;;;;;;20825;6748;117039;-71
2023/03/24 05:44:07;;;;;;;2.47;2.27;;;16.50;45.10;;;;;;20967;6708;116875;-72
2023/03/24 05:46:43;;;;;;;2.73;2.63;;;16.20;45.70;;;;;;20742;6718;305317;-74
2023/03/24 05:49:20;;;;;;;3.00;2.80;;;16.60;49.50;;;;;;20741;6708;335686;-73
2023/03/24 05:51:59;;;;;;;2.63;2.43;;;16.60;49.20;;;;;;20623;6733;313326;-75
2023/03/24 05:54:32;;;;;;;2.27;2.10;;;16.80;49.90;;;;;;20965;6708;119095;-74
2023/03/24 05:57:07;;;;;;;2.70;2.60;;;16.50;48.50;;;;;;20725;6774;306278;-74
2023/03/24 05:59:43;;;;;;;2.80;2.50;;;16.50;49.90;;;;;;20750;6708;290236;-74
2023/03/24 06:02:18;;;;;;;2.70;2.60;;;16.70;49.70;;;;;;20846;6708;122621;-76
2023/03/24 06:04:56;;;;;;;2.77;2.53;;;16.40;49.20;;;;;;20898;6733;117032;-75
2023/03/24 06:07:29;;;;;;;2.20;2.10;;;16.10;49.40;;;;;;20925;6723;116901;-76
2023/03/24 06:10:06;;;;;;;2.43;2.33;;;15.80;49.70;;;;;;20689;6733;311440;-79
2023/03/24 06:12:41;;;;;;;3.30;3.00;;;15.90;51.30;;;;;;20539;6739;303843;-76
2023/03/24 06:15:17;;;;;;;2.47;2.30;;;16.30;51.00;;;;;;20927;6723;122787;-76
2023/03/24 06:17:54;;;;;;;2.80;2.60;;;16.20;50.30;;;;;;20718;6713;334936;-76
2023/03/24 06:20:28;;;;;;;2.50;2.30;;;16.10;50.60;;;;;;20918;6720;117229;-75
2023/03/24 06:23:04;;;;;;;2.83;2.67;;;16.10;50.50;;;;;;20622;6716;307226;-74
2023/03/24 06:25:43;;;;;;;2.37;2.27;;;16.20;51.50;;;;;;20855;6746;116866;-77
2023/03/24 06:28:18;;;;;;;3.33;3.03;;;16.10;51.10;;;;;;20693;6739;282833;-77
2023/03/24 06:30:57;;;;;;;2.97;2.78;;;16.30;52.30;;;;;;20729;6732;275831;-75
2023/03/24 06:33:30;;;;;;;3.00;2.80;;;16.50;52.20;;;;;;20700;6813;120432;-74
2023/03/24 06:36:06;;;;;;;3.10;2.63;;;16.40;51.60;;;;;;20861;6739;117479;-73
2023/03/24 06:38:42;;;;;;;2.73;2.37;;;15.90;52.00;;;;;;20931;6723;117073;-75
2023/03/24 06:41:18;;;;;;;2.67;2.20;;;15.90;52.00;;;;;;20935;6716;117159;-73
2023/03/24 06:43:53;;;;;;;5.03;2.50;;;15.70;52.20;;;;;;20966;6723;117304;-74
2023/03/24 06:46:29;;;;;;;2.90;2.70;;;15.50;52.40;;;;;;20907;6723;120812;-76
2023/03/24 06:49:05;;;;;;;3.70;2.70;;;15.70;54.50;;;;;;20752;6723;338572;-74
2023/03/24 06:51:41;;;;;;;2.67;2.47;;;15.70;54.40;;;;;;20919;6723;119987;-76
2023/03/24 06:54:16;;;;;;;4.00;3.27;;;15.80;53.70;;;;;;20967;6720;116845;-77
2023/03/24 06:56:52;;;;;;;3.27;3.07;;;15.70;53.60;;;;;;20980;6720;117255;-77
2023/03/24 06:59:27;;;;;;;3.42;3.17;;;15.60;53.70;;;;;;20751;6720;275911;-78
2023/03/24 07:02:03;;;;;;;4.00;3.80;;;15.90;55.20;;;;;;20572;6746;284070;-77
2023/03/24 07:04:38;;;;;;;3.53;3.25;;;16.30;54.80;;;;;;20629;6746;330014;-78
2023/03/24 07:07:14;;;;;;;3.43;3.23;;;16.60;54.00;;;;;;20911;6731;116859;-76
2023/03/24 07:09:53;;;;;;;3.10;2.90;;;16.50;53.40;;;;;;20598;6761;341835;-75
2023/03/24 07:12:25;;;;;;;3.40;3.10;;;16.60;54.00;;;;;;20578;6731;279667;-78
2023/03/24 07:15:03;;;;;;;3.30;3.10;;;17.00;53.80;;;;;;20699;6733;335220;-77
2023/03/24 07:17:38;;;;;;;4.37;4.07;;;17.00;53.60;;;;;;20640;6748;280775;-82
2023/03/24 07:20:14;;;;;;;4.30;4.00;;;17.00;53.60;;;;;;20689;6723;306571;-80
2023/03/24 07:22:49;;;;;;;4.10;3.80;;;17.10;53.50;;;;;;20766;6723;119430;-75
2023/03/24 07:25:24;;;;;;;3.87;3.60;;;16.80;53.30;;;;;;20720;6723;305099;-78
2023/03/24 07:28:01;;;;;;;3.28;2.97;;;16.70;54.40;;;;;;20710;6724;334710;-76
2023/03/24 07:30:36;;;;;;;3.43;3.13;;;16.70;54.40;;;;;;20842;6748;118713;-75
2023/03/24 07:33:12;;;;;;;4.20;4.00;;;16.50;54.00;;;;;;20527;6747;295246;-74
2023/03/24 07:35:48;;;;;;;3.13;2.93;;;16.20;55.50;;;;;;20934;6723;116830;-78
2023/03/24 07:38:24;;;;;;;3.50;2.90;;;16.20;55.00;;;;;;20809;6725;120472;-74
2023/03/24 07:40:59;;;;;;;3.83;2.93;;;15.80;55.20;;;;;;20926;6723;117406;-73
2023/03/24 07:43:35;;;;;;;3.97;3.50;;;15.60;55.60;;;;;;20726;6789;117642;-73
2023/03/24 07:46:11;;;;;;;3.93;3.30;;;15.30;55.90;;;;;;20906;6725;119963;-74
2023/03/24 07:48:47;;;;;;;4.17;3.87;;;15.40;58.90;;;;;;20689;6732;277413;-72
2023/03/24 07:51:22;;;;;;;6.78;3.72;;;15.40;58.90;;;;;;20669;6731;342029;-75
2023/03/24 07:53:58;;;;;;;4.47;3.97;;;15.80;58.70;;;;;;20927;6725;117580;-71
2023/03/24 07:56:34;;;;;;;3.97;3.57;;;15.70;57.80;;;;;;20924;6725;117105;-71
2023/03/24 07:59:09;;;;;;;5.27;4.87;;;15.50;58.00;;;;;;20750;6710;280873;-73
2023/03/24 08:01:48;;;;;;;5.00;4.60;;;16.00;59.40;;;;;;20632;6740;288085;-74
2023/03/24 08:04:21;;;;;;;4.87;3.97;;;15.90;59.30;;;;;;20604;6755;298815;-73
2023/03/24 08:06:57;;;;;;;4.82;3.65;;;16.20;58.70;;;;;;20630;6746;328187;-73
2023/03/24 08:09:32;;;;;;;4.07;3.47;;;16.40;58.30;;;;;;20920;6728;117027;-73
2023/03/24 08:12:08;;;;;;;4.10;3.80;;;16.20;57.70;;;;;;20755;6742;117475;-76
2023/03/24 08:14:44;;;;;;;4.43;4.03;;;15.90;59.20;;;;;;20713;6726;306434;-75
2023/03/24 08:17:20;;;;;;;4.60;3.90;;;15.90;59.20;;;;;;20931;6726;116968;-73
2023/03/24 08:19:57;;;;;;;3.70;3.40;;;15.90;58.90;;;;;;20936;6725;116913;-75
2023/03/24 08:22:32;;;;;;;4.50;4.10;;;15.60;58.80;;;;;;20576;6741;279501;-74
2023/03/24 08:25:09;;;;;;;3.53;3.23;;;15.80;60.40;;;;;;20956;6710;121247;-77
2023/03/24 08:27:46;;;;;;;4.50;4.20;;;15.90;60.50;;;;;;20715;6725;309695;-77
2023/03/24 08:30:22;;;;;;;4.10;3.80;;;15.90;60.50;;;;;;20897;6727;117361;-78
2023/03/24 08:32:58;;;;;;;5.00;4.60;;;15.90;60.00;;;;;;20614;6723;307311;-79
2023/03/24 08:35:37;;;;;;;4.93;4.53;;;16.30;59.90;;;;;;20760;6712;280213;-78
2023/03/24 08:38:10;;;;;;;4.62;4.22;;;16.30;60.00;;;;;;20710;6712;306724;-78
2023/03/24 08:40:48;;;;;;;4.13;3.83;;;16.50;59.50;;;;;;20984;6710;119228;-76
2023/03/24 08:43:22;;;;;;;4.75;4.40;;;16.40;60.20;;;;;;20541;6710;278429;-72
2023/03/24 08:45:57;;;;;;;4.60;4.30;;;16.40;60.10;;;;;;20754;6725;307728;-73
2023/03/24 08:48:36;;;;;;;4.10;3.80;;;16.60;59.70;;;;;;20873;6725;122867;-72
2023/03/24 08:51:16;;;;;;;5.27;3.77;;;16.50;59.30;;;;;;20950;6725;116726;-73
2023/03/24 08:53:51;;;;;;;4.13;3.83;;;16.20;59.50;;;;;;20964;6714;116801;-73
2023/03/24 08:56:25;;;;;;;5.87;4.00;;;15.90;59.80;;;;;;20902;6728;117739;-73
2023/03/24 08:59:01;;;;;;;5.50;5.10;;;15.70;60.00;;;;;;20716;6725;336205;-74
2023/03/24 09:01:36;;;;;;;7.50;4.77;;;15.80;61.00;;;;;;20933;6725;116765;-73
2023/03/24 09:04:12;;;;;;;5.00;4.63;;;15.80;60.50;;;;;;20913;6726;123338;-73
2023/03/24 09:06:48;;;;;;;5.40;4.90;;;15.70;60.70;;;;;;20837;6726;117597;-73
2023/03/24 09:09:23;;;;;;;5.70;5.28;;;15.50;60.90;;;;;;20704;6725;295038;-74
2023/03/24 09:11:59;;;;;;;5.60;5.03;;;15.80;62.30;;;;;;20887;6710;125818;-75
2023/03/24 09:14:34;;;;;;;4.97;4.57;;;15.80;61.50;;;;;;20926;6726;118204;-74
2023/03/24 09:17:10;;;;;;;3.70;3.50;;;15.70;61.40;;;;;;20822;6756;118176;-74
2023/03/24 09:19:46;;;;;;;4.10;3.80;;;15.50;61.60;;;;;;20919;6727;117113;-72
2023/03/24 09:22:21;;;;;;;4.40;4.10;;;15.50;61.60;;;;;;20667;6712;311119;-72
2023/03/24 09:24:57;;;;;;;3.93;3.47;;;15.80;62.50;;;;;;20907;6729;117183;-72
2023/03/24 09:27:33;;;;;;;3.30;3.10;;;15.90;61.80;;;;;;20917;6726;117147;-75
2023/03/24 09:30:08;;;;;;;3.40;3.20;;;15.90;61.90;;;;;;20864;6739;120904;-75
2023/03/24 09:32:44;;;;;;;4.00;3.80;;;15.90;61.80;;;;;;20560;6725;308024;-72
2023/03/24 09:35:21;;;;;;;2.80;2.60;;;16.40;61.00;;;;;;20975;6725;118128;-74
2023/03/24 09:37:56;;;;;;;2.57;2.33;;;16.40;61.00;;;;;;20910;6726;117455;-74
2023/03/24 09:40:31;;;;;;;2.37;2.17;;;16.30;60.50;;;;;;20910;6724;118616;-75
2023/03/24 09:43:15;;;;;;;2.37;2.27;;;16.30;60.10;;;;;;20676;6755;117592;-74
2023/03/24 09:45:50;;;;;;;2.50;2.30;;;16.30;59.80;;;;;;20870;6741;117982;-78
2023/03/24 09:48:33;;;;;;;2.27;2.07;;;16.30;59.70;;;;;;20905;6740;117106;-80
2023/03/24 09:51:21;;;;;;;1.97;1.87;;;16.40;59.60;;;;;;20879;6740;117422;-75
2023/03/24 09:53:58;;;;;;;1.98;1.87;;;16.40;59.10;;;;;;20708;6729;337801;-77
2023/03/24 09:56:32;;;;;;;1.80;1.70;;;16.90;58.50;;;;;;20894;6729;119630;-78
2023/03/24 09:59:12;;;;;;;1.87;1.77;;;17.20;57.00;;;;;;20978;6709;116723;-74
2023/03/24 10:01:50;;;;;;;1.67;1.57;;;17.30;56.60;;;;;;20655;6724;316859;-75
2023/03/24 10:04:26;;;;;;;1.70;1.60;;;18.10;54.60;;;;;;20690;6726;320108;-79
2023/03/24 10:07:10;;;;;;;1.63;1.40;;;18.00;54.50;;;;;;20967;6711;117423;-77
2023/03/24 10:09:49;;;;;;;2.60;2.50;;;18.30;54.20;;;;;;20977;6724;117837;-75
2023/03/24 10:12:42;;;;;;;1.40;1.30;;;18.40;54.50;;;;;;20533;6739;308426;-73
2023/03/24 10:15:27;;;;;;;1.50;1.50;;;18.60;53.90;;;;;;20977;6711;117918;-74
2023/03/24 10:18:06;;;;;;;1.77;1.67;;;18.80;53.20;;;;;;20756;6724;293697;-74
2023/03/24 10:20:44;;;;;;;1.90;1.80;;;19.20;51.30;;;;;;20599;6795;277688;-74
2023/03/24 10:23:23;;;;;;;1.40;1.40;;;19.40;49.40;;;;;;20708;6739;117371;-74
2023/03/24 10:25:59;;;;;;;2.23;2.13;;;19.40;50.00;;;;;;20932;6726;117016;-74
2023/03/24 10:28:43;;;;;;;1.97;1.87;;;19.20;50.70;;;;;;20611;6756;279655;-74
2023/03/24 10:31:20;;;;;;;2.10;1.70;;;19.30;49.80;;;;;;20936;6710;116862;-74
2023/03/24 10:33:56;;;;;;;2.30;2.20;;;19.30;49.80;;;;;;20759;6710;276637;-74
2023/03/24 10:36:31;;;;;;;4.10;3.90;;;19.40;49.40;;;;;;20737;6725;342230;-74
2023/03/24 10:39:07;;;;;;;3.27;3.00;;;19.70;48.60;;;;;;20926;6725;117107;-76
2023/03/24 10:41:42;;;;;;;1.47;1.47;;;19.70;48.50;;;;;;20895;6725;116866;-74
2023/03/24 10:44:19;;;;;;;1.73;1.70;;;19.40;48.70;;;;;;21005;6710;117438;-74
2023/03/24 10:46:55;;;;;;;1.23;1.20;;;19.20;48.90;;;;;;20922;6726;116883;-74
2023/03/24 10:49:32;;;;;;;1.70;1.70;;;19.10;48.00;;;;;;20720;6726;277313;-74
2023/03/24 10:52:07;;;;;;;1.60;1.50;;;19.00;47.50;;;;;;20844;6726;118116;-71
2023/03/24 10:54:43;;;;;;;1.77;1.67;;;18.90;47.80;;;;;;20707;6726;310034;-75
2023/03/24 10:57:19;;;;;;;4.67;4.37;;;19.00;48.10;;;;;;20925;6725;117011;-71
2023/03/24 10:59:58;;;;;;;2.77;2.67;;;18.80;48.30;;;;;;20703;6725;288754;-74
2023/03/24 11:02:33;;;;;;;1.85;1.83;;;19.00;47.80;;;;;;20638;6725;336471;-75
2023/03/24 11:05:09;;;;;;;2.93;2.50;;;19.20;47.40;;;;;;20924;6726;116835;-74
2023/03/24 11:07:46;;;;;;;2.00;1.90;;;19.00;47.10;;;;;;20711;6725;307243;-74
2023/03/24 11:10:24;;;;;;;1.47;1.30;;;19.10;47.10;;;;;;20594;6756;305304;-73
2023/03/24 11:13:06;;;;;;;1.13;1.13;;;19.20;46.70;;;;;;20834;6710;117256;-73
2023/03/24 11:15:41;;;;;;;0.70;0.70;;;19.10;46.60;;;;;;20896;6725;116920;-73
2023/03/24 11:18:18;;;;;;;1.00;0.90;;;18.90;46.70;;;;;;20731;6710;339677;-76
2023/03/24 11:21:07;;;;;;;0.70;0.70;;;19.00;46.00;;;;;;20923;6710;118094;-73
2023/03/24 11:23:45;;;;;;;0.80;0.80;;;18.90;46.20;;;;;;20839;6725;122884;-74
2023/03/24 11:26:33;;;;;;;3.40;0.60;;;18.60;47.10;;;;;;20851;6727;120050;-71
2023/03/24 11:29:19;;;;;;;0.73;0.73;;;18.40;47.00;;;;;;20908;6727;117015;-72
2023/03/24 11:31:57;;;;;;;0.70;0.70;;;18.20;47.40;;;;;;20774;6742;116886;-71
2023/03/24 11:34:40;;;;;;;0.90;0.90;;;18.10;47.70;;;;;;20722;6753;309313;-70
2023/03/24 11:37:20;;;;;;;0.90;0.90;;;18.90;46.10;;;;;;20697;6729;334751;-69
2023/03/24 11:40:08;;;;;;;0.50;0.50;;;18.80;46.00;;;;;;20826;6756;117230;-73
2023/03/24 11:42:39;;;;;;;13.83;0.90;;;18.90;45.80;;;;;;20813;6725;117589;-70
2023/03/24 11:45:22;;;;;;;0.70;0.70;;;18.80;46.20;;;;;;20933;6725;121791;-73
2023/03/24 11:47:58;;;;;;;0.63;0.60;;;18.70;46.60;;;;;;20667;6782;309334;-71
2023/03/24 11:50:34;;;;;;;0.80;0.80;;;18.90;45.70;;;;;;20937;6717;116783;-71
2023/03/24 11:53:12;;;;;;;0.63;0.60;;;19.00;45.60;;;;;;20726;6740;119955;-73
2023/03/24 11:56:14;;;;;;;0.65;0.65;;;18.90;45.60;;;;;;20707;6726;305667;-72
2023/03/24 11:58:49;;;;;;;3.60;0.70;;;19.00;44.50;;;;;;20694;6725;310134;-73
2023/03/24 12:01:25;;;;;;;0.80;0.50;;;19.40;43.80;;;;;;20601;6756;311808;-76
2023/03/24 12:04:14;;;;;;;0.57;0.57;;;19.50;43.00;;;;;;20700;6725;305685;-78
2023/03/24 12:07:29;;;;;;;0.60;0.60;;;19.60;43.00;;;;;;20930;6725;117247;-78
2023/03/24 12:10:28;;;;;;;0.50;0.50;;;19.30;43.50;;;;;;20935;6725;122704;-73
2023/03/24 12:13:14;;;;;;;0.50;0.50;;;18.80;44.50;;;;;;20837;6725;119330;-74
2023/03/24 12:16:07;;;;;;;0.70;0.70;;;18.50;44.60;;;;;;20718;6726;276620;-76
2023/03/24 12:18:56;;;;;;;0.60;0.60;;;18.50;44.50;;;;;;20681;6726;306976;-73
2023/03/24 12:21:52;;;;;;;0.60;0.60;;;19.10;43.80;;;;;;20681;6725;307495;-72
2023/03/24 12:24:54;;;;;;;0.53;0.53;;;19.00;43.70;;;;;;20955;6710;116855;-73
2023/03/24 12:27:51;;;;;;;0.70;0.70;;;18.50;44.90;;;;;;20422;6774;118184;-72
2023/03/24 12:30:45;;;;;;;0.70;0.70;;;18.50;44.90;;;;;;20914;6725;117268;-71
2023/03/24 12:33:45;;;;;;;0.50;0.50;;;18.30;45.50;;;;;;20498;6756;311900;-73
2023/03/24 12:36:50;;;;;;;0.63;0.63;;;18.50;44.90;;;;;;20895;6725;117415;-73
2023/03/24 12:39:36;;;;;;;0.50;0.50;;;18.50;45.00;;;;;;20960;6725;117444;-71
2023/03/24 12:42:14;;;;;;;0.40;0.40;;;18.20;45.20;;;;;;20634;6725;336036;-72
2023/03/24 12:45:30;;;;;;;0.30;0.30;;;18.50;44.20;;;;;;20930;6725;117077;-72
2023/03/24 12:48:15;;;;;;;4.03;0.50;;;18.40;44.10;;;;;;20935;6725;123129;-71
2023/03/24 12:50:58;;;;;;;0.83;0.30;;;18.10;44.70;;;;;;20929;6725;117307;-72
2023/03/24 12:53:40;;;;;;;0.30;0.30;;;18.40;44.20;;;;;;20607;6768;311147;-72
2023/03/24 12:56:16;;;;;;;0.20;0.20;;;18.40;44.20;;;;;;20904;6726;122713;-73
2023/03/24 12:58:55;;;;;;;0.53;0.37;;;18.60;44.10;;;;;;20702;6725;276150;-72
2023/03/24 13:01:36;;;;;;;0.20;0.20;;;18.90;42.70;;;;;;20548;6800;280251;-72
2023/03/24 13:04:09;;;;;;;1.20;0.30;;;19.20;42.40;;;;;;20614;6758;302998;-72
2023/03/24 13:06:58;;;;;;;0.50;0.20;;;19.40;41.60;;;;;;20706;6729;310386;-72
2023/03/24 13:09:54;;;;;;;1.00;0.30;;;19.70;41.50;;;;;;20733;6716;305419;-71
2023/03/24 13:12:42;;;;;;;0.20;0.20;;;19.90;41.10;;;;;;20650;6716;344168;-73
2023/03/24 13:15:17;;;;;;;0.30;0.30;;;20.00;40.60;;;;;;20925;6782;116998;-73
2023/03/24 13:18:10;;;;;;;0.53;0.40;;;19.40;41.60;;;;;;20933;6726;116804;-71
2023/03/24 13:20:53;;;;;;;0.30;0.30;;;19.40;41.60;;;;;;20930;6728;118891;-72
2023/03/24 13:23:35;;;;;;;0.30;0.30;;;18.60;42.40;;;;;;20657;6813;120568;-75
2023/03/24 13:26:32;;;;;;;0.30;0.30;;;18.60;42.30;;;;;;20920;6723;126519;-73
2023/03/24 13:29:23;;;;;;;0.50;0.27;;;18.30;42.70;;;;;;20705;6729;319771;-73
2023/03/24 13:31:59;;;;;;;0.28;0.28;;;18.80;41.60;;;;;;20657;6730;281093;-73
2023/03/24 13:34:35;;;;;;;0.30;0.30;;;18.80;41.60;;;;;;20915;6727;116866;-73